sensor_id;sensor_type;location;lat;lon;timestamp;pressure;altitude;pressure_sealevel;temperature;humidity
75521;BME280;64102;48.628;9.002;2023-02-11T00:00:13;97987.38;;;-5.65;91.64
75521;BME280;64102;48.628;9.002;2023-02-11T00:02:39;97990.75;;;-5.57;91.44
75521;BME280;64102;48.628;9.002;2023-02-11T00:05:05;97987.44;;;-5.43;91.49
75521;BME280;64102;48.628;9.002;2023-02-11T00:07:31;97982.44;;;-5.38;90.52
75521;BME280;64102;48.628;9.002;2023-02-11T00:09:57;97986.63;;;-5.37;90.54
75521;BME280;64102;48.628;9.002;2023-02-11T00:12:23;97991.66;;;-5.32;90.24
75521;BME280;64102;48.628;9.002;2023-02-11T00:14:49;97980.78;;;-5.28;90.25
75521;BME280;64102;48.628;9.002;2023-02-11T00:17:15;97974.91;;;-5.32;89.64
75521;BME280;64102;48.628;9.002;2023-02-11T00:19:40;97970.69;;;-5.39;90.38
75521;BME280;64102;48.628;9.002;2023-02-11T00:22:05;97975.72;;;-5.45;90.24
75521;BME280;64102;48.628;9.002;2023-02-11T00:24:31;97969.81;;;-5.50;90.73
75521;BME280;64102;48.628;9.002;2023-02-11T00:26:56;97977.34;;;-5.56;90.44
75521;BME280;64102;48.628;9.002;2023-02-11T00:29:22;97981.44;;;-5.81;90.73
75521;BME280;64102;48.628;9.002;2023-02-11T00:31:47;97978.91;;;-5.93;91.17
75521;BME280;64102;48.628;9.002;2023-02-11T00:34:13;97987.19;;;-6.11;91.30
75521;BME280;64102;48.628;9.002;2023-02-11T00:36:38;97982.13;;;-6.15;92.45
75521;BME280;64102;48.628;9.002;2023-02-11T00:39:04;97985.50;;;-6.16;92.55
75521;BME280;64102;48.628;9.002;2023-02-11T00:41:29;97985.50;;;-6.16;92.96
75521;BME280;64102;48.628;9.002;2023-02-11T00:43:55;97982.19;;;-6.06;93.08
75521;BME280;64102;48.628;9.002;2023-02-11T00:46:21;97977.25;;;-5.94;92.50
75521;BME280;64102;48.628;9.002;2023-02-11T00:48:46;97966.38;;;-5.75;92.29
75521;BME280;64102;48.628;9.002;2023-02-11T00:51:11;97945.44;;;-5.66;91.52
75521;BME280;64102;48.628;9.002;2023-02-11T00:53:37;97953.84;;;-5.69;91.02
75521;BME280;64102;48.628;9.002;2023-02-11T00:56:03;97947.97;;;-5.65;91.54
75521;BME280;64102;48.628;9.002;2023-02-11T00:58:28;97951.34;;;-5.60;91.59
75521;BME280;64102;48.628;9.002;2023-02-11T01:00:54;97950.50;;;-5.60;91.52
75521;BME280;64102;48.628;9.002;2023-02-11T01:03:20;97958.00;;;-5.74;91.53
75521;BME280;64102;48.628;9.002;2023-02-11T01:05:45;97959.59;;;-6.00;91.25
75521;BME280;64102;48.628;9.002;2023-02-11T01:08:10;97963.78;;;-6.05;93.20
75521;BME280;64102;48.628;9.002;2023-02-11T01:10:36;97963.78;;;-6.05;92.09
75521;BME280;64102;48.628;9.002;2023-02-11T01:13:01;97968.00;;;-6.00;93.13
75521;BME280;64102;48.628;9.002;2023-02-11T01:15:27;97958.69;;;-6.11;92.42
75521;BME280;64102;48.628;9.002;2023-02-11T01:17:52;97959.66;;;-5.90;93.09
75521;BME280;64102;48.628;9.002;2023-02-11T01:20:24;97955.47;;;-5.81;92.50
75521;BME280;64102;48.628;9.002;2023-02-11T01:22:50;97947.09;;;-5.86;92.24
75521;BME280;64102;48.628;9.002;2023-02-11T01:25:15;97949.59;;;-5.91;92.14
75521;BME280;64102;48.628;9.002;2023-02-11T01:27:41;97940.38;;;-5.86;91.78
75521;BME280;64102;48.628;9.002;2023-02-11T01:30:07;97945.41;;;-5.78;91.88
75521;BME280;64102;48.628;9.002;2023-02-11T01:32:34;97944.59;;;-5.76;91.65
75521;BME280;64102;48.628;9.002;2023-02-11T01:34:59;97932.84;;;-5.81;91.85
75521;BME280;64102;48.628;9.002;2023-02-11T01:37:25;97925.31;;;-5.75;91.77
75521;BME280;64102;48.628;9.002;2023-02-11T01:39:50;97927.88;;;-5.62;90.95
75521;BME280;64102;48.628;9.002;2023-02-11T01:42:19;97916.97;;;-5.58;91.31
75521;BME280;64102;48.628;9.002;2023-02-11T01:44:48;97921.19;;;-5.55;91.04
75521;BME280;64102;48.628;9.002;2023-02-11T01:47:13;97927.88;;;-5.57;91.07
75521;BME280;64102;48.628;9.002;2023-02-11T01:49:43;97918.66;;;-5.64;91.22
75521;BME280;64102;48.628;9.002;2023-02-11T01:52:46;97916.13;;;-5.69;91.42
75521;BME280;64102;48.628;9.002;2023-02-11T01:55:09;97914.41;;;-5.82;90.88
75521;BME280;64102;48.628;9.002;2023-02-11T01:57:57;97902.69;;;-5.95;91.47
75521;BME280;64102;48.628;9.002;2023-02-11T02:00:29;97901.00;;;-5.93;92.15
75521;BME280;64102;48.628;9.002;2023-02-11T02:03:19;97901.03;;;-5.90;92.19
75521;BME280;64102;48.628;9.002;2023-02-11T02:06:06;97903.50;;;-5.96;92.15
75521;BME280;64102;48.628;9.002;2023-02-11T02:08:39;97908.44;;;-6.19;92.08
75521;BME280;64102;48.628;9.002;2023-02-11T02:11:07;97897.50;;;-6.30;92.36
75521;BME280;64102;48.628;9.002;2023-02-11T02:13:33;97900.88;;;-6.26;93.07
75521;BME280;64102;48.628;9.002;2023-02-11T02:16:04;97898.38;;;-6.16;93.14
75521;BME280;64102;48.628;9.002;2023-02-11T02:32:57;97884.97;;;-6.22;93.61
75521;BME280;64102;48.628;9.002;2023-02-11T02:35:42;97896.66;;;-6.35;93.41
75521;BME280;64102;48.628;9.002;2023-02-11T02:38:15;97891.66;;;-6.30;94.11
75521;BME280;64102;48.628;9.002;2023-02-11T02:40:49;97888.34;;;-6.14;94.10
75521;BME280;64102;48.628;9.002;2023-02-11T02:43:18;97882.47;;;-6.19;93.85
75521;BME280;64102;48.628;9.002;2023-02-11T02:45:44;97865.78;;;-6.02;94.07
75521;BME280;64102;48.628;9.002;2023-02-11T02:48:30;97878.41;;;-5.72;92.21
75521;BME280;64102;48.628;9.002;2023-02-11T02:51:14;97861.66;;;-5.61;91.38
75521;BME280;64102;48.628;9.002;2023-02-11T02:53:57;97865.88;;;-5.51;91.13
75521;BME280;64102;48.628;9.002;2023-02-11T02:56:47;97862.50;;;-5.60;91.00
75521;BME280;64102;48.628;9.002;2023-02-11T02:59:30;97864.19;;;-5.55;91.60
75521;BME280;64102;48.628;9.002;2023-02-11T03:07:28;97865.03;;;-5.51;90.15
75521;BME280;64102;48.628;9.002;2023-02-11T03:10:06;97861.66;;;-5.76;90.91
75521;BME280;64102;48.628;9.002;2023-02-11T03:12:33;97870.84;;;-5.89;91.88
75521;BME280;64102;48.628;9.002;2023-02-11T03:15:01;97864.97;;;-5.98;92.08
75521;BME280;64102;48.628;9.002;2023-02-11T03:17:28;97864.16;;;-5.91;92.94
75521;BME280;64102;48.628;9.002;2023-02-11T03:19:55;97866.69;;;-5.71;93.34
75521;BME280;64102;48.628;9.002;2023-02-11T03:22:25;97861.66;;;-5.58;91.79
75521;BME280;64102;48.628;9.002;2023-02-11T03:24:52;97850.78;;;-5.51;91.37
75521;BME280;64102;48.628;9.002;2023-02-11T03:30:21;97846.63;;;-5.32;90.13
75521;BME280;64102;48.628;9.002;2023-02-11T03:32:55;97847.44;;;-5.27;90.01
75521;BME280;64102;48.628;9.002;2023-02-11T03:38:20;97857.53;;;-5.27;90.65
75521;BME280;64102;48.628;9.002;2023-02-11T03:40:46;97860.03;;;-5.45;90.95
75521;BME280;64102;48.628;9.002;2023-02-11T03:43:15;97865.88;;;-5.51;91.05
75521;BME280;64102;48.628;9.002;2023-02-11T03:45:43;97868.38;;;-5.57;91.60
75521;BME280;64102;48.628;9.002;2023-02-11T03:48:24;97878.47;;;-5.46;91.91
75521;BME280;64102;48.628;9.002;2023-02-11T03:50:51;97869.25;;;-5.27;91.20
75521;BME280;64102;48.628;9.002;2023-02-11T03:53:19;97843.22;;;-5.17;89.35
75521;BME280;64102;48.628;9.002;2023-02-11T03:55:46;97841.56;;;-5.12;88.97
75521;BME280;64102;48.628;9.002;2023-02-11T03:58:13;97839.03;;;-5.12;89.26
75521;BME280;64102;48.628;9.002;2023-02-11T04:00:40;97838.19;;;-5.13;89.32
75521;BME280;64102;48.628;9.002;2023-02-11T04:03:06;97839.91;;;-5.15;89.02
75521;BME280;64102;48.628;9.002;2023-02-11T04:05:32;97850.78;;;-5.22;89.84
75521;BME280;64102;48.628;9.002;2023-02-11T04:07:58;97850.78;;;-5.34;90.58
75521;BME280;64102;48.628;9.002;2023-02-11T04:10:23;97865.06;;;-5.36;91.11
75521;BME280;64102;48.628;9.002;2023-02-11T04:12:48;97847.44;;;-5.36;91.31
75521;BME280;64102;48.628;9.002;2023-02-11T04:15:14;97860.00;;;-5.42;91.15
75521;BME280;64102;48.628;9.002;2023-02-11T04:17:39;97850.78;;;-5.57;91.76
75521;BME280;64102;48.628;9.002;2023-02-11T04:20:05;97844.91;;;-5.56;92.18
75521;BME280;64102;48.628;9.002;2023-02-11T04:22:30;97849.09;;;-5.47;91.47
75521;BME280;64102;48.628;9.002;2023-02-11T04:24:56;97843.25;;;-5.43;91.59
75521;BME280;64102;48.628;9.002;2023-02-11T04:27:21;97846.63;;;-5.32;91.19
75521;BME280;64102;48.628;9.002;2023-02-11T04:29:47;97856.69;;;-5.27;91.55
75521;BME280;64102;48.628;9.002;2023-02-11T04:32:12;97867.56;;;-5.39;91.53
75521;BME280;64102;48.628;9.002;2023-02-11T04:34:38;97865.03;;;-5.30;92.36
75521;BME280;64102;48.628;9.002;2023-02-11T04:37:04;97869.25;;;-5.05;91.66
75521;BME280;64102;48.628;9.002;2023-02-11T04:39:29;97872.56;;;-4.95;92.50
75521;BME280;64102;48.628;9.002;2023-02-11T04:41:54;97870.91;;;-4.78;91.92
75521;BME280;64102;48.628;9.002;2023-02-11T04:44:20;97874.22;;;-4.68;91.20
75521;BME280;64102;48.628;9.002;2023-02-11T04:46:45;97871.72;;;-4.61;90.33
75521;BME280;64102;48.628;9.002;2023-02-11T04:49:12;97869.16;;;-4.59;90.12
75521;BME280;64102;48.628;9.002;2023-02-11T04:51:38;97868.31;;;-4.55;89.37
75521;BME280;64102;48.628;9.002;2023-02-11T04:54:03;97874.16;;;-4.39;89.96
75521;BME280;64102;48.628;9.002;2023-02-11T04:56:29;97859.00;;;-4.32;90.29
75521;BME280;64102;48.628;9.002;2023-02-11T04:58:54;97859.00;;;-4.27;90.13
75521;BME280;64102;48.628;9.002;2023-02-11T05:01:19;97858.97;;;-4.18;89.71
75521;BME280;64102;48.628;9.002;2023-02-11T05:03:45;97849.69;;;-4.09;88.76
75521;BME280;64102;48.628;9.002;2023-02-11T05:06:10;97860.59;;;-4.05;88.64
75521;BME280;64102;48.628;9.002;2023-02-11T05:08:35;97857.13;;;-3.86;87.54
75521;BME280;64102;48.628;9.002;2023-02-11T05:11:01;97845.25;;;-3.66;87.01
75521;BME280;64102;48.628;9.002;2023-02-11T05:13:27;97855.28;;;-3.56;87.08
75521;BME280;64102;48.628;9.002;2023-02-11T05:15:53;97851.03;;;-3.48;85.59
75521;BME280;64102;48.628;9.002;2023-02-11T05:18:18;97850.91;;;-3.35;85.82
75521;BME280;64102;48.628;9.002;2023-02-11T05:20:44;97849.13;;;-3.21;84.61
75521;BME280;64102;48.628;9.002;2023-02-11T05:23:10;97847.41;;;-3.16;84.79
75521;BME280;64102;48.628;9.002;2023-02-11T05:25:35;97846.63;;;-3.22;85.22
75521;BME280;64102;48.628;9.002;2023-02-11T05:28:01;97835.59;;;-3.10;85.24
75521;BME280;64102;48.628;9.002;2023-02-11T05:30:27;97839.69;;;-2.99;84.16
75521;BME280;64102;48.628;9.002;2023-02-11T05:32:52;97830.38;;;-2.92;84.44
75521;BME280;64102;48.628;9.002;2023-02-11T05:35:18;97812.56;;;-2.79;84.16
75521;BME280;64102;48.628;9.002;2023-02-11T05:37:43;97802.47;;;-2.79;83.23
75521;BME280;64102;48.628;9.002;2023-02-11T05:40:09;97799.69;;;-2.57;83.28
75521;BME280;64102;48.628;9.002;2023-02-11T05:42:34;97795.47;;;-2.55;83.61
75521;BME280;64102;48.628;9.002;2023-02-11T05:45:00;97782.69;;;-2.42;83.10
75521;BME280;64102;48.628;9.002;2023-02-11T05:47:25;97783.25;;;-2.23;83.27
75521;BME280;64102;48.628;9.002;2023-02-11T05:49:51;97788.19;;;-2.14;83.58
75521;BME280;64102;48.628;9.002;2023-02-11T05:52:18;97776.09;;;-1.91;82.12
75521;BME280;64102;48.628;9.002;2023-02-11T05:54:43;97780.09;;;-1.77;81.51
75521;BME280;64102;48.628;9.002;2023-02-11T05:57:09;97767.22;;;-1.61;80.56
75521;BME280;64102;48.628;9.002;2023-02-11T05:59:34;97774.69;;;-1.53;80.03
75521;BME280;64102;48.628;9.002;2023-02-11T06:01:59;97783.91;;;-1.49;79.68
75521;BME280;64102;48.628;9.002;2023-02-11T06:04:25;97789.59;;;-1.37;78.70
75521;BME280;64102;48.628;9.002;2023-02-11T06:06:50;97786.28;;;-1.40;79.00
75521;BME280;64102;48.628;9.002;2023-02-11T06:09:15;97780.34;;;-1.38;78.71
75521;BME280;64102;48.628;9.002;2023-02-11T06:11:41;97767.72;;;-1.39;78.56
75521;BME280;64102;48.628;9.002;2023-02-11T06:14:06;97774.63;;;-1.49;79.66
75521;BME280;64102;48.628;9.002;2023-02-11T06:16:32;97777.09;;;-1.44;79.07
75521;BME280;64102;48.628;9.002;2023-02-11T06:18:57;97775.34;;;-1.42;79.07
75521;BME280;64102;48.628;9.002;2023-02-11T06:21:22;97804.06;;;-1.43;78.46
75521;BME280;64102;48.628;9.002;2023-02-11T06:23:48;97799.94;;;-1.49;78.86
75521;BME280;64102;48.628;9.002;2023-02-11T06:26:21;97805.03;;;-1.52;79.18
75521;BME280;64102;48.628;9.002;2023-02-11T06:28:47;97825.47;;;-1.64;80.56
75521;BME280;64102;48.628;9.002;2023-02-11T06:31:13;97823.88;;;-1.71;80.82
75521;BME280;64102;48.628;9.002;2023-02-11T06:33:38;97828.84;;;-1.65;80.42
75521;BME280;64102;48.628;9.002;2023-02-11T06:36:11;97838.03;;;-1.59;79.95
75521;BME280;64102;48.628;9.002;2023-02-11T06:38:37;97847.44;;;-1.67;80.69
75521;BME280;64102;48.628;9.002;2023-02-11T06:41:03;97843.13;;;-1.59;80.24
75521;BME280;64102;48.628;9.002;2023-02-11T06:43:28;97831.16;;;-1.48;79.77
75521;BME280;64102;48.628;9.002;2023-02-11T06:45:54;97838.69;;;-1.45;79.49
75521;BME280;64102;48.628;9.002;2023-02-11T06:48:20;97832.00;;;-1.49;80.22
75521;BME280;64102;48.628;9.002;2023-02-11T06:50:46;97840.38;;;-1.46;79.95
75521;BME280;64102;48.628;9.002;2023-02-11T06:53:11;97827.72;;;-1.44;79.24
75521;BME280;64102;48.628;9.002;2023-02-11T06:55:37;97816.75;;;-1.45;79.30
75521;BME280;64102;48.628;9.002;2023-02-11T06:58:02;97813.44;;;-1.50;79.43
75521;BME280;64102;48.628;9.002;2023-02-11T07:00:27;97812.63;;;-1.52;80.25
75521;BME280;64102;48.628;9.002;2023-02-11T07:02:53;97817.63;;;-1.47;80.22
75521;BME280;64102;48.628;9.002;2023-02-11T07:05:19;97816.03;;;-1.54;80.42
75521;BME280;64102;48.628;9.002;2023-02-11T07:07:44;97830.28;;;-1.47;79.94
75521;BME280;64102;48.628;9.002;2023-02-11T07:10:09;97830.13;;;-1.38;79.20
75521;BME280;64102;48.628;9.002;2023-02-11T07:12:35;97828.34;;;-1.30;78.87
75521;BME280;64102;48.628;9.002;2023-02-11T07:15:00;97840.03;;;-1.24;78.71
75521;BME280;64102;48.628;9.002;2023-02-11T07:17:26;97851.84;;;-1.22;78.43
75521;BME280;64102;48.628;9.002;2023-02-11T07:19:51;97843.28;;;-1.15;78.51
75521;BME280;64102;48.628;9.002;2023-02-11T07:22:16;97843.06;;;-1.03;78.12
75521;BME280;64102;48.628;9.002;2023-02-11T07:24:42;97843.75;;;-0.92;78.10
75521;BME280;64102;48.628;9.002;2023-02-11T07:27:07;97837.69;;;-0.83;77.54
75521;BME280;64102;48.628;9.002;2023-02-11T07:29:32;97833.91;;;-0.62;76.84
75521;BME280;64102;48.628;9.002;2023-02-11T07:31:58;97834.69;;;-0.57;76.69
75521;BME280;64102;48.628;9.002;2023-02-11T07:34:23;97835.44;;;-0.52;76.30
75521;BME280;64102;48.628;9.002;2023-02-11T07:36:49;97837.88;;;-0.46;76.04
75521;BME280;64102;48.628;9.002;2023-02-11T07:39:14;97825.09;;;-0.41;75.97
75521;BME280;64102;48.628;9.002;2023-02-11T07:41:40;97826.03;;;-0.47;76.42
75521;BME280;64102;48.628;9.002;2023-02-11T07:44:05;97825.28;;;-0.51;76.90
75521;BME280;64102;48.628;9.002;2023-02-11T07:46:31;97829.34;;;-0.43;77.14
75521;BME280;64102;48.628;9.002;2023-02-11T07:48:56;97836.84;;;-0.36;76.90
75521;BME280;64102;48.628;9.002;2023-02-11T07:51:27;97857.31;;;-0.04;75.24
75521;BME280;64102;48.628;9.002;2023-02-11T07:53:54;97856.66;;;0.27;73.83
75521;BME280;64102;48.628;9.002;2023-02-11T07:56:20;97862.16;;;0.49;72.88
75521;BME280;64102;48.628;9.002;2023-02-11T07:58:46;97857.75;;;0.55;73.31
75521;BME280;64102;48.628;9.002;2023-02-11T08:01:19;97855.81;;;0.66;72.24
75521;BME280;64102;48.628;9.002;2023-02-11T08:03:46;97846.84;;;0.52;72.03
75521;BME280;64102;48.628;9.002;2023-02-11T08:06:17;97849.19;;;0.59;72.28
75521;BME280;64102;48.628;9.002;2023-02-11T08:08:44;97851.41;;;0.74;71.77
75521;BME280;64102;48.628;9.002;2023-02-11T08:11:15;97839.22;;;0.87;70.91
75521;BME280;64102;48.628;9.002;2023-02-11T08:13:49;97838.81;;;1.38;69.67
75521;BME280;64102;48.628;9.002;2023-02-11T08:16:21;97829.97;;;3.70;61.97
75521;BME280;64102;48.628;9.002;2023-02-11T08:18:47;97830.34;;;5.16;56.58
75521;BME280;64102;48.628;9.002;2023-02-11T08:21:13;97820.19;;;4.93;56.71
75521;BME280;64102;48.628;9.002;2023-02-11T08:23:40;97815.50;;;6.22;53.51
75521;BME280;64102;48.628;9.002;2023-02-11T08:26:09;97811.63;;;6.87;50.80
75521;BME280;64102;48.628;9.002;2023-02-11T08:28:36;97816.09;;;6.65;50.67
75521;BME280;64102;48.628;9.002;2023-02-11T08:31:07;97820.06;;;6.35;51.79
75521;BME280;64102;48.628;9.002;2023-02-11T08:33:33;97808.00;;;6.55;52.02
75521;BME280;64102;48.628;9.002;2023-02-11T08:35:58;97811.81;;;8.34;46.65
75521;BME280;64102;48.628;9.002;2023-02-11T08:38:24;97812.97;;;8.60;45.42
75521;BME280;64102;48.628;9.002;2023-02-11T08:40:49;97817.81;;;7.52;47.56
75521;BME280;64102;48.628;9.002;2023-02-11T08:43:15;97824.00;;;6.60;50.56
75521;BME280;64102;48.628;9.002;2023-02-11T08:45:40;97823.28;;;6.57;51.27
75521;BME280;64102;48.628;9.002;2023-02-11T08:48:07;97836.97;;;6.01;52.56
75521;BME280;64102;48.628;9.002;2023-02-11T08:50:32;97830.53;;;5.52;54.98
75521;BME280;64102;48.628;9.002;2023-02-11T08:52:58;97832.47;;;5.05;55.26
75521;BME280;64102;48.628;9.002;2023-02-11T08:55:23;97836.75;;;5.85;54.29
75521;BME280;64102;48.628;9.002;2023-02-11T08:57:48;97832.00;;;5.37;53.68
75521;BME280;64102;48.628;9.002;2023-02-11T09:00:14;97837.31;;;5.13;55.82
75521;BME280;64102;48.628;9.002;2023-02-11T09:02:40;97828.94;;;4.87;56.18
75521;BME280;64102;48.628;9.002;2023-02-11T09:05:06;97826.38;;;4.66;57.03
75521;BME280;64102;48.628;9.002;2023-02-11T09:07:32;97825.50;;;4.67;56.54
75521;BME280;64102;48.628;9.002;2023-02-11T09:09:57;97808.88;;;7.42;50.83
75521;BME280;64102;48.628;9.002;2023-02-11T09:12:22;97813.81;;;8.90;44.90
75521;BME280;64102;48.628;9.002;2023-02-11T09:14:48;97806.19;;;9.63;41.76
75521;BME280;64102;48.628;9.002;2023-02-11T09:17:13;97811.53;;;10.45;40.48
75521;BME280;64102;48.628;9.002;2023-02-11T09:19:38;97808.50;;;11.83;37.46
75521;BME280;64102;48.628;9.002;2023-02-11T09:22:04;97816.63;;;12.28;35.89
75521;BME280;64102;48.628;9.002;2023-02-11T09:24:29;97811.19;;;13.03;35.04
75521;BME280;64102;48.628;9.002;2023-02-11T09:26:54;97813.88;;;13.26;33.92
75521;BME280;64102;48.628;9.002;2023-02-11T09:29:20;97829.50;;;13.83;33.11
75521;BME280;64102;48.628;9.002;2023-02-11T09:31:45;97829.16;;;13.99;32.44
75521;BME280;64102;48.628;9.002;2023-02-11T09:34:11;97823.16;;;14.09;31.49
75521;BME280;64102;48.628;9.002;2023-02-11T09:36:38;97822.78;;;15.33;30.71
75521;BME280;64102;48.628;9.002;2023-02-11T09:39:07;97830.94;;;15.81;30.99
75521;BME280;64102;48.628;9.002;2023-02-11T09:44:37;97823.97;;;14.21;32.38
75521;BME280;64102;48.628;9.002;2023-02-11T09:47:10;97828.75;;;12.64;35.23
75521;BME280;64102;48.628;9.002;2023-02-11T09:49:43;97818.84;;;14.86;30.00
75521;BME280;64102;48.628;9.002;2023-02-11T09:55:00;97810.50;;;15.97;27.69
75521;BME280;64102;48.628;9.002;2023-02-11T09:57:32;97804.84;;;15.72;28.76
75521;BME280;64102;48.628;9.002;2023-02-11T09:59:59;97803.56;;;15.24;29.18
75521;BME280;64102;48.628;9.002;2023-02-11T10:02:33;97812.50;;;15.84;28.67
75521;BME280;64102;48.628;9.002;2023-02-11T10:08:25;97829.19;;;14.54;30.39
75521;BME280;64102;48.628;9.002;2023-02-11T10:10:58;97829.41;;;15.05;29.05
75521;BME280;64102;48.628;9.002;2023-02-11T10:24:27;97826.19;;;13.70;31.70
75521;BME280;64102;48.628;9.002;2023-02-11T10:26:53;97822.19;;;13.99;31.67
75521;BME280;64102;48.628;9.002;2023-02-11T10:29:42;97823.25;;;14.08;30.91
75521;BME280;64102;48.628;9.002;2023-02-11T10:33:17;97826.00;;;14.40;30.61
75521;BME280;64102;48.628;9.002;2023-02-11T10:35:19;97829.31;;;14.96;29.59
75521;BME280;64102;48.628;9.002;2023-02-11T10:37:45;97825.97;;;14.06;31.32
75521;BME280;64102;48.628;9.002;2023-02-11T10:40:20;97815.44;;;14.74;30.49
75521;BME280;64102;48.628;9.002;2023-02-11T10:42:48;97818.00;;;14.86;30.40
75521;BME280;64102;48.628;9.002;2023-02-11T10:47:46;97817.63;;;16.35;27.56
75521;BME280;64102;48.628;9.002;2023-02-11T10:52:43;97820.16;;;16.16;28.81
75521;BME280;64102;48.628;9.002;2023-02-11T10:57:41;97816.13;;;16.73;28.21
75521;BME280;64102;48.628;9.002;2023-02-11T11:00:35;97794.38;;;18.07;25.45
75521;BME280;64102;48.628;9.002;2023-02-11T11:03:06;97799.19;;;18.02;25.68
75521;BME280;64102;48.628;9.002;2023-02-11T11:08:17;97794.44;;;16.63;27.47
75521;BME280;64102;48.628;9.002;2023-02-11T11:11:00;97792.72;;;18.06;25.35
75521;BME280;64102;48.628;9.002;2023-02-11T11:13:52;97788.44;;;17.58;26.70
75521;BME280;64102;48.628;9.002;2023-02-11T11:16:27;97792.34;;;17.81;25.83
75521;BME280;64102;48.628;9.002;2023-02-11T11:19:18;97783.09;;;19.06;24.21
75521;BME280;64102;48.628;9.002;2023-02-11T11:21:49;97776.66;;;18.83;24.74
75521;BME280;64102;48.628;9.002;2023-02-11T11:26:51;97782.63;;;17.74;26.35
75521;BME280;64102;48.628;9.002;2023-02-11T11:29:22;97778.16;;;18.03;25.85
75521;BME280;64102;48.628;9.002;2023-02-11T11:31:54;97781.25;;;17.79;26.51
75521;BME280;64102;48.628;9.002;2023-02-11T11:34:35;97788.31;;;16.43;28.10
75521;BME280;64102;48.628;9.002;2023-02-11T11:37:13;97783.47;;;16.88;27.72
75521;BME280;64102;48.628;9.002;2023-02-11T11:39:51;97780.56;;;16.22;28.78
75521;BME280;64102;48.628;9.002;2023-02-11T11:42:26;97782.56;;;16.49;28.49
75521;BME280;64102;48.628;9.002;2023-02-11T11:45:00;97783.16;;;17.77;26.67
75521;BME280;64102;48.628;9.002;2023-02-11T11:47:36;97777.81;;;18.16;26.13
75521;BME280;64102;48.628;9.002;2023-02-11T11:52:53;97783.78;;;16.94;27.64
75521;BME280;64102;48.628;9.002;2023-02-11T11:58:13;97775.56;;;17.18;28.03
75521;BME280;64102;48.628;9.002;2023-02-11T12:09:32;97761.47;;;18.68;26.82
75521;BME280;64102;48.628;9.002;2023-02-11T12:25:27;97757.94;;;19.31;25.24
75521;BME280;64102;48.628;9.002;2023-02-11T12:36:00;97754.81;;;20.30;24.55
75521;BME280;64102;48.628;9.002;2023-02-11T12:44:24;97769.34;;;16.81;30.54
75521;BME280;64102;48.628;9.002;2023-02-11T12:50:03;97753.19;;;17.81;28.19
75521;BME280;64102;48.628;9.002;2023-02-11T12:55:19;97751.91;;;17.10;30.26
75521;BME280;64102;48.628;9.002;2023-02-11T12:57:47;97755.31;;;16.13;29.47
75521;BME280;64102;48.628;9.002;2023-02-11T13:00:21;97757.69;;;17.04;29.52
75521;BME280;64102;48.628;9.002;2023-02-11T13:03:27;97753.13;;;18.01;27.58
75521;BME280;64102;48.628;9.002;2023-02-11T13:05:57;97752.72;;;18.77;27.53
75521;BME280;64102;48.628;9.002;2023-02-11T13:08:36;97751.38;;;18.73;26.59
75521;BME280;64102;48.628;9.002;2023-02-11T13:11:11;97752.22;;;18.19;27.64
75521;BME280;64102;48.628;9.002;2023-02-11T13:13:50;97748.75;;;17.92;27.63
75521;BME280;64102;48.628;9.002;2023-02-11T13:16:34;97743.53;;;17.35;28.96
75521;BME280;64102;48.628;9.002;2023-02-11T13:21:41;97728.84;;;17.25;27.71
75521;BME280;64102;48.628;9.002;2023-02-11T13:24:52;97726.56;;;17.68;27.29
75521;BME280;64102;48.628;9.002;2023-02-11T13:35:40;97723.13;;;18.05;27.03
75521;BME280;64102;48.628;9.002;2023-02-11T13:38:23;97723.91;;;18.15;27.33
75521;BME280;64102;48.628;9.002;2023-02-11T13:43:40;97727.84;;;17.45;28.96
75521;BME280;64102;48.628;9.002;2023-02-11T13:46:08;97718.84;;;17.01;28.80
75521;BME280;64102;48.628;9.002;2023-02-11T13:48:38;97724.81;;;17.50;29.56
75521;BME280;64102;48.628;9.002;2023-02-11T13:51:13;97723.84;;;17.41;27.90
75521;BME280;64102;48.628;9.002;2023-02-11T13:53:48;97733.00;;;16.30;30.65
75521;BME280;64102;48.628;9.002;2023-02-11T13:56:29;97730.59;;;17.43;29.90
75521;BME280;64102;48.628;9.002;2023-02-11T13:58:56;97728.00;;;17.24;30.76
75521;BME280;64102;48.628;9.002;2023-02-11T14:04:22;97731.28;;;14.55;33.08
75521;BME280;64102;48.628;9.002;2023-02-11T14:07:26;97728.94;;;14.84;33.10
75521;BME280;64102;48.628;9.002;2023-02-11T14:16:23;97728.59;;;14.23;33.84
75521;BME280;64102;48.628;9.002;2023-02-11T14:21:32;97715.41;;;15.21;32.56
75521;BME280;64102;48.628;9.002;2023-02-11T14:29:12;97708.09;;;13.53;36.00
75521;BME280;64102;48.628;9.002;2023-02-11T14:31:51;97714.00;;;14.00;35.70
75521;BME280;64102;48.628;9.002;2023-02-11T14:34:45;97717.19;;;14.14;35.81
75521;BME280;64102;48.628;9.002;2023-02-11T14:40:08;97725.25;;;12.86;37.53
75521;BME280;64102;48.628;9.002;2023-02-11T14:42:36;97726.69;;;12.42;39.22
75521;BME280;64102;48.628;9.002;2023-02-11T14:45:08;97726.09;;;12.39;39.49
75521;BME280;64102;48.628;9.002;2023-02-11T14:47:59;97722.97;;;13.05;39.77
75521;BME280;64102;48.628;9.002;2023-02-11T14:50:40;97728.91;;;12.83;38.64
75521;BME280;64102;48.628;9.002;2023-02-11T14:53:13;97731.97;;;12.88;38.42
75521;BME280;64102;48.628;9.002;2023-02-11T14:55:42;97725.53;;;12.94;38.29
75521;BME280;64102;48.628;9.002;2023-02-11T14:58:17;97726.94;;;12.39;40.22
75521;BME280;64102;48.628;9.002;2023-02-11T15:00:48;97723.81;;;12.82;39.52
75521;BME280;64102;48.628;9.002;2023-02-11T15:03:37;97728.22;;;13.16;40.48
75521;BME280;64102;48.628;9.002;2023-02-11T15:06:18;97726.97;;;12.98;40.09
75521;BME280;64102;48.628;9.002;2023-02-11T15:08:54;97732.75;;;12.78;41.19
75521;BME280;64102;48.628;9.002;2023-02-11T15:11:24;97740.09;;;12.36;42.22
75521;BME280;64102;48.628;9.002;2023-02-11T15:13:50;97748.66;;;12.49;41.94
75521;BME280;64102;48.628;9.002;2023-02-11T15:16:20;97741.75;;;11.63;43.83
75521;BME280;64102;48.628;9.002;2023-02-11T15:18:52;97750.22;;;11.52;44.55
75521;BME280;64102;48.628;9.002;2023-02-11T15:21:23;97747.13;;;11.35;46.51
75521;BME280;64102;48.628;9.002;2023-02-11T15:24:36;97749.97;;;11.05;47.51
75521;BME280;64102;48.628;9.002;2023-02-11T15:26:42;97752.25;;;10.97;47.92
75521;BME280;64102;48.628;9.002;2023-02-11T15:29:15;97751.34;;;11.10;47.34
75521;BME280;64102;48.628;9.002;2023-02-11T15:31:41;97748.19;;;10.80;47.97
75521;BME280;64102;48.628;9.002;2023-02-11T15:34:07;97748.34;;;10.77;48.01